Pheafan — 3EKS — position and weather

sailwx.info

Track history (hours):
 
Tides and Currents Weather Stations Pressure Air Temp Water Temp Dewpoint Dewpoint Depression Visibility Wind Speed Wind Dir Waves Ship Positions

Pheafan

Last reported at 2018-Jul-06 23:06 UTC. Time now 2018-Jul-22 18:17 UTC.
Position N 36°55' E 023°50'.
Warning: this ship's position is 15 days out of date.

Length 160 m; draft 9.7 m.

Type: Cargo ship. MMSI: 353095000.

Date/timePositionNaut miles runAvg speedWind from/ knotsBaromVisibWave heightAir tempDewpointWater temp
2018-Jul-06 23:06N 36°55' E 023°50'513.0
2018-Jul-06 22:42N 36°51' E 023°46'312.9
2018-Jul-06 22:30N 36°48' E 023°45'612.8
2018-Jul-06 22:00N 36°44' E 023°39'612.7
2018-Jul-06 21:30N 36°39' E 023°34'612.8
2018-Jul-06 21:00N 36°35' E 023°28'38613.0
2018-Jul-05 15:17N 36°18' E 015°28'413.2
2018-Jul-05 15:00N 36°18' E 015°24'1312.7
2018-Jul-05 14:00N 36°18' E 015°08'612.9
2018-Jul-05 13:30N 36°18' E 015°00'612.9
2018-Jul-05 13:00N 36°20' E 014°53'612.9
2018-Jul-05 12:30N 36°21' E 014°45'713.3
2018-Jul-05 11:57N 36°23' E 014°36'613.5
2018-Jul-05 11:30N 36°25' E 014°29'713.5
2018-Jul-05 11:01N 36°27' E 014°21'713.6
2018-Jul-05 10:30N 36°29' E 014°13'713.5
2018-Jul-05 10:00N 36°31' E 014°05'713.6
2018-Jul-05 09:29N 36°33' E 013°56'713.6
2018-Jul-05 09:01N 36°35' E 013°48'713.2
2018-Jul-05 08:28N 36°37' E 013°40'612.8
2018-Jul-05 08:00N 36°38' E 013°33'612.7
2018-Jul-05 07:30N 36°39' E 013°25'612.3
2018-Jul-05 07:00N 36°41' E 013°18'31512.4
2018-Jul-04 05:32N 37°18' E 006°46'112.3
2018-Jul-04 05:30N 37°18' E 006°45'812.6
2018-Jul-04 04:52N 37°18' E 006°35'512.8
2018-Jul-04 04:30N 37°18' E 006°29'712.8
2018-Jul-04 03:58N 37°18' E 006°21'712.7
2018-Jul-04 03:27N 37°18' E 006°12'1012.3
2018-Jul-04 02:39N 37°18' E 006°00'212.1
2018-Jul-04 02:30N 37°18' E 005°58'611.9
2018-Jul-04 02:00N 37°18' E 005°50'711.7
2018-Jul-04 01:24N 37°18' E 005°41'511.6
2018-Jul-04 00:58N 37°18' E 005°35'511.6
2018-Jul-04 00:30N 37°18' E 005°28'611.7
2018-Jul-04 00:00N 37°17' E 005°21'712.0
2018-Jul-03 23:24N 37°17' E 005°12'1412.4
2018-Jul-03 22:14N 37°14' E 004°54'312.7
2018-Jul-03 22:00N 37°14' E 004°51'612.7
2018-Jul-03 21:30N 37°13' E 004°43'712.6
2018-Jul-03 20:56N 37°12' E 004°34'612.7
2018-Jul-03 20:29N 37°11' E 004°27'612.9
2018-Jul-03 20:00N 37°10' E 004°19'713.0
2018-Jul-03 19:29N 37°09' E 004°10'612.9
2018-Jul-03 19:00N 37°08' E 004°03'612.6
2018-Jul-03 18:30N 37°07' E 003°55'712.3
2018-Jul-03 17:59N 37°06' E 003°47'611.9
2018-Jul-03 17:29N 37°05' E 003°40'611.7
2018-Jul-03 16:59N 37°04' E 003°32'611.8
2018-Jul-03 16:30N 37°03' E 003°25'612.7
2018-Jul-03 16:00N 37°03' E 003°18'612.4
2018-Jul-03 15:30N 37°02' E 003°10'612.7
2018-Jul-03 15:00N 37°01' E 003°02'612.7
2018-Jul-03 14:30N 37°00' E 002°54'712.8
2018-Jul-03 14:00N 36°59' E 002°46'713.2
2018-Jul-03 13:29N 36°58' E 002°38'613.0
2018-Jul-03 13:00N 36°57' E 002°30'613.0
2018-Jul-03 12:30N 36°56' E 002°22'713.3
2018-Jul-03 11:58N 36°55' E 002°13'613.6
2018-Jul-03 11:30N 36°54' E 002°05'713.4
2018-Jul-03 11:00N 36°53' E 001°57'713.5
2018-Jul-03 10:30N 36°52' E 001°49'713.5
2018-Jul-03 09:59N 36°50' E 001°40'713.5
2018-Jul-03 09:30N 36°49' E 001°32'713.7
2018-Jul-03 09:00N 36°49' E 001°24'713.7
2018-Jul-03 08:28N 36°47' E 001°14'713.9
2018-Jul-03 07:56N 36°46' E 001°06'713.9
2018-Jul-03 07:26N 36°45' E 000°57'813.9
2018-Jul-03 06:51N 36°44' E 000°47'513.9
2018-Jul-03 06:30N 36°43' E 000°41'713.8
2018-Jul-03 06:00N 36°42' E 000°32'713.7
2018-Jul-03 05:30N 36°41' E 000°24'713.7
2018-Jul-03 05:00N 36°40' E 000°15'713.8
2018-Jul-03 04:30N 36°39' E 000°07'713.8
2018-Jul-03 03:59N 36°38' W 000°02'1313.6
2018-Jul-03 03:04N 36°37' W 000°17'113.8
2018-Jul-03 03:00N 36°36' W 000°19'713.2
2018-Jul-03 02:30N 36°35' W 000°27'713.1
2018-Jul-03 01:59N 36°34' W 000°35'713.2
2018-Jul-03 01:30N 36°33' W 000°43'613.1
2018-Jul-03 01:00N 36°32' W 000°51'21313.9
2018-Jul-02 09:43N 35°60' W 005°12'314.8
2018-Jul-02 09:30N 35°60' W 005°16'714.3
2018-Jul-02 09:01N 35°58' W 005°24'26211.1
2018-Jul-01 09:22N 38°21' W 010°00'513.0
2018-Jul-01 09:00N 38°26' W 010°02'713.0
2018-Jul-01 08:30N 38°32' W 010°04'1112.6
2018-Jul-01 07:39N 38°43' W 010°06'212.5
2018-Jul-01 07:30N 38°44' W 010°06'1112.5
2018-Jul-01 06:37N 38°56' W 010°06'213.0
2018-Jul-01 06:30N 38°57' W 010°06'63312.5
2018-Jun-29 03:55N 48°59' W 005°34'511.7
2018-Jun-29 03:30N 49°02' W 005°28'611.9
2018-Jun-29 03:00N 49°05' W 005°20'6713.6
2018-Jun-28 22:05N 49°39' W 003°51'113.3
2018-Jun-28 21:59N 49°39' W 003°49'613.3
2018-Jun-28 21:30N 49°42' W 003°40'613.0
2018-Jun-28 21:00N 49°45' W 003°32'612.3
2018-Jun-28 20:30N 49°49' W 003°24'611.8
2018-Jun-28 20:00N 49°52' W 003°16'611.3
2018-Jun-28 19:30N 49°54' W 003°08'611.2
2018-Jun-28 19:00N 49°57' W 003°00'611.2
2018-Jun-28 18:30N 49°59' W 002°52'611.6
2018-Jun-28 18:00N 50°00' W 002°43'612.0
2018-Jun-28 17:30N 50°02' W 002°34'612.6
2018-Jun-28 17:00N 50°04' W 002°25'713.3
2018-Jun-28 16:30N 50°06' W 002°15'714.1
2018-Jun-28 16:00N 50°08' W 002°05'1015.1
2018-Jun-28 15:21N 50°11' W 001°50'716.5
2018-Jun-28 14:55N 50°13' W 001°39'1416.1
2018-Jun-28 14:01N 50°16' W 001°17'416.1
2018-Jun-28 13:48N 50°17' W 001°12'616.0
2018-Jun-28 13:25N 50°18' W 001°02'615.4
2018-Jun-28 13:00N 50°20' W 000°53'714.4
2018-Jun-28 12:30N 50°22' W 000°42'713.7
2018-Jun-28 11:59N 50°25' W 000°32'1113.0
2018-Jun-28 11:08N 50°28' W 000°15'212.4
2018-Jun-28 10:59N 50°28' W 000°12'612.1
2018-Jun-28 10:30N 50°30' W 000°03'611.7
2018-Jun-28 09:58N 50°32' E 000°06'611.2
2018-Jun-28 09:25N 50°33' E 000°15'410.9
2018-Jun-28 09:00N 50°34' E 000°22'611.0
2018-Jun-28 08:29N 50°36' E 000°31'611.7
2018-Jun-28 08:00N 50°39' E 000°38'612.6
2018-Jun-28 07:30N 50°43' E 000°46'713.5
2018-Jun-28 07:00N 50°47' E 000°55'714.1
2018-Jun-28 06:30N 50°51' E 001°04'714.6
2018-Jun-28 06:01N 50°56' E 001°12'714.9
2018-Jun-28 05:30N 51°01' E 001°21'714.5
2018-Jun-28 05:00N 51°05' E 001°30'713.3
2018-Jun-28 04:30N 51°10' E 001°38'612.6
2018-Jun-28 04:00N 51°14' E 001°46'612.1
2018-Jun-28 03:30N 51°19' E 001°50'611.5
2018-Jun-28 03:00N 51°24' E 001°55'611.1
2018-Jun-28 02:30N 51°29' E 001°60'510.8
2018-Jun-28 02:00N 51°33' E 002°05'611.0
2018-Jun-28 01:30N 51°37' E 002°11'611.0
2018-Jun-28 01:00N 51°41' E 002°17'711.3
2018-Jun-28 00:22N 51°46' E 002°25'511.8
2018-Jun-27 23:58N 51°50' E 002°30'712.3
2018-Jun-27 23:25N 51°55' E 002°36'2910.4
2018-Jun-27 20:36N 52°03' E 003°22'113.7
2018-Jun-27 20:30N 52°03' E 003°24'713.8
2018-Jun-27 20:00N 52°03' E 003°35'713.7
2018-Jun-27 19:30N 52°03' E 003°47'510.9
2018-Jun-27 19:00N 52°03' E 003°55'612.6
2018-Jun-27 18:30N 51°59' E 004°04'612.6
2018-Jun-27 18:00N 51°56' E 004°13'510.0
2018-Jun-27 17:30N 51°54' E 004°20'4 7.1
2018-Jun-27 17:00N 51°54' E 004°26'1 2.5
2018-Jun-27 16:30N 51°53' E 004°27'0 0.1
2018-Jun-27 16:00N 51°53' E 004°27'0 0.0
2018-Jun-27 15:30N 51°53' E 004°27'0 0.0
2018-Jun-27 15:00N 51°53' E 004°27'0 0.0
2018-Jun-27 14:30N 51°53' E 004°27'0 0.0
2018-Jun-27 14:00N 51°53' E 004°27'0 0.0
2018-Jun-27 13:30N 51°53' E 004°27'0 0.0
2018-Jun-27 13:00N 51°53' E 004°27'0 0.0
2018-Jun-27 12:30N 51°53' E 004°27'0 0.0
2018-Jun-27 12:00N 51°53' E 004°27'0 0.0
2018-Jun-27 11:30N 51°53' E 004°27'0 0.0
2018-Jun-27 11:00N 51°53' E 004°27'0 0.0
2018-Jun-27 10:30N 51°53' E 004°27'0 0.0
2018-Jun-27 10:00N 51°53' E 004°27'0 0.0
2018-Jun-27 09:30N 51°53' E 004°27'0 0.0
2018-Jun-27 09:00N 51°53' E 004°27'0 0.0
2018-Jun-27 08:30N 51°53' E 004°27'0 0.0
2018-Jun-27 08:00N 51°53' E 004°27'0 0.0
2018-Jun-27 07:30N 51°53' E 004°27'0 0.0
2018-Jun-27 07:00N 51°53' E 004°27'0 0.0
2018-Jun-27 06:30N 51°53' E 004°27'0 0.0
2018-Jun-27 06:00N 51°53' E 004°27'1 2.2
2018-Jun-27 05:30N 51°54' E 004°26'2 4.7
2018-Jun-27 05:00N 51°54' E 004°22'2 3.9
2018-Jun-27 04:30N 51°53' E 004°20'2 4.8
2018-Jun-27 04:00N 51°51' E 004°22'4 7.1
2018-Jun-27 03:30N 51°50' E 004°27'3 6.8
2018-Jun-27 03:00N 51°50' E 004°33'3 5.2
2018-Jun-27 02:30N 51°48' E 004°36'1 3.0
2018-Jun-27 02:00N 51°48' E 004°38'0 0.2
2018-Jun-27 01:26N 51°48' E 004°38'0 0.0
2018-Jun-27 00:53N 51°48' E 004°38'0 0.0
2018-Jun-27 00:29N 51°48' E 004°38'0 0.0
2018-Jun-27 00:00N 51°48' E 004°38'0 0.0
2018-Jun-26 23:30N 51°48' E 004°38'  
Track history (hours):
 
Tides and Currents Weather Stations Pressure Air Temp Water Temp Dewpoint Dewpoint Depression Visibility Wind Speed Wind Dir Waves Ship Positions

Pheafan

Last reported at 2018-Jul-06 23:06 UTC. Time now 2018-Jul-22 18:17 UTC.
Position N 36°55' E 023°50'.
Warning: this ship's position is 15 days out of date.

Length 160 m; draft 9.7 m.

Type: Cargo ship. MMSI: 353095000.

Date/timePositionNaut miles runAvg speedWind from/ knotsBaromVisibWave heightAir tempDewpointWater temp
2018-Jul-06 23:06N 36°55' E 023°50'513.0
2018-Jul-06 22:42N 36°51' E 023°46'312.9
2018-Jul-06 22:30N 36°48' E 023°45'612.8
2018-Jul-06 22:00N 36°44' E 023°39'612.7
2018-Jul-06 21:30N 36°39' E 023°34'612.8
2018-Jul-06 21:00N 36°35' E 023°28'38613.0
2018-Jul-05 15:17N 36°18' E 015°28'413.2
2018-Jul-05 15:00N 36°18' E 015°24'1312.7
2018-Jul-05 14:00N 36°18' E 015°08'612.9
2018-Jul-05 13:30N 36°18' E 015°00'612.9
2018-Jul-05 13:00N 36°20' E 014°53'612.9
2018-Jul-05 12:30N 36°21' E 014°45'713.3
2018-Jul-05 11:57N 36°23' E 014°36'613.5
2018-Jul-05 11:30N 36°25' E 014°29'713.5
2018-Jul-05 11:01N 36°27' E 014°21'713.6
2018-Jul-05 10:30N 36°29' E 014°13'713.5
2018-Jul-05 10:00N 36°31' E 014°05'713.6
2018-Jul-05 09:29N 36°33' E 013°56'713.6
2018-Jul-05 09:01N 36°35' E 013°48'713.2
2018-Jul-05 08:28N 36°37' E 013°40'612.8
2018-Jul-05 08:00N 36°38' E 013°33'612.7
2018-Jul-05 07:30N 36°39' E 013°25'612.3
2018-Jul-05 07:00N 36°41' E 013°18'31512.4
2018-Jul-04 05:32N 37°18' E 006°46'112.3
2018-Jul-04 05:30N 37°18' E 006°45'812.6
2018-Jul-04 04:52N 37°18' E 006°35'512.8
2018-Jul-04 04:30N 37°18' E 006°29'712.8
2018-Jul-04 03:58N 37°18' E 006°21'712.7
2018-Jul-04 03:27N 37°18' E 006°12'1012.3
2018-Jul-04 02:39N 37°18' E 006°00'212.1
2018-Jul-04 02:30N 37°18' E 005°58'611.9
2018-Jul-04 02:00N 37°18' E 005°50'711.7
2018-Jul-04 01:24N 37°18' E 005°41'511.6
2018-Jul-04 00:58N 37°18' E 005°35'511.6
2018-Jul-04 00:30N 37°18' E 005°28'611.7
2018-Jul-04 00:00N 37°17' E 005°21'712.0
2018-Jul-03 23:24N 37°17' E 005°12'1412.4
2018-Jul-03 22:14N 37°14' E 004°54'312.7
2018-Jul-03 22:00N 37°14' E 004°51'612.7
2018-Jul-03 21:30N 37°13' E 004°43'712.6
2018-Jul-03 20:56N 37°12' E 004°34'612.7
2018-Jul-03 20:29N 37°11' E 004°27'612.9
2018-Jul-03 20:00N 37°10' E 004°19'713.0
2018-Jul-03 19:29N 37°09' E 004°10'612.9
2018-Jul-03 19:00N 37°08' E 004°03'612.6
2018-Jul-03 18:30N 37°07' E 003°55'712.3
2018-Jul-03 17:59N 37°06' E 003°47'611.9
2018-Jul-03 17:29N 37°05' E 003°40'611.7
2018-Jul-03 16:59N 37°04' E 003°32'611.8
2018-Jul-03 16:30N 37°03' E 003°25'612.7
2018-Jul-03 16:00N 37°03' E 003°18'612.4
2018-Jul-03 15:30N 37°02' E 003°10'612.7
2018-Jul-03 15:00N 37°01' E 003°02'612.7
2018-Jul-03 14:30N 37°00' E 002°54'712.8
2018-Jul-03 14:00N 36°59' E 002°46'713.2
2018-Jul-03 13:29N 36°58' E 002°38'613.0
2018-Jul-03 13:00N 36°57' E 002°30'613.0
2018-Jul-03 12:30N 36°56' E 002°22'713.3
2018-Jul-03 11:58N 36°55' E 002°13'613.6
2018-Jul-03 11:30N 36°54' E 002°05'713.4
2018-Jul-03 11:00N 36°53' E 001°57'713.5
2018-Jul-03 10:30N 36°52' E 001°49'713.5
2018-Jul-03 09:59N 36°50' E 001°40'713.5
2018-Jul-03 09:30N 36°49' E 001°32'713.7
2018-Jul-03 09:00N 36°49' E 001°24'713.7
2018-Jul-03 08:28N 36°47' E 001°14'713.9
2018-Jul-03 07:56N 36°46' E 001°06'713.9
2018-Jul-03 07:26N 36°45' E 000°57'813.9
2018-Jul-03 06:51N 36°44' E 000°47'513.9
2018-Jul-03 06:30N 36°43' E 000°41'713.8
2018-Jul-03 06:00N 36°42' E 000°32'713.7
2018-Jul-03 05:30N 36°41' E 000°24'713.7
2018-Jul-03 05:00N 36°40' E 000°15'713.8
2018-Jul-03 04:30N 36°39' E 000°07'713.8
2018-Jul-03 03:59N 36°38' W 000°02'1313.6
2018-Jul-03 03:04N 36°37' W 000°17'113.8
2018-Jul-03 03:00N 36°36' W 000°19'713.2
2018-Jul-03 02:30N 36°35' W 000°27'713.1
2018-Jul-03 01:59N 36°34' W 000°35'713.2
2018-Jul-03 01:30N 36°33' W 000°43'613.1
2018-Jul-03 01:00N 36°32' W 000°51'21313.9
2018-Jul-02 09:43N 35°60' W 005°12'314.8
2018-Jul-02 09:30N 35°60' W 005°16'714.3
2018-Jul-02 09:01N 35°58' W 005°24'26211.1
2018-Jul-01 09:22N 38°21' W 010°00'513.0
2018-Jul-01 09:00N 38°26' W 010°02'713.0
2018-Jul-01 08:30N 38°32' W 010°04'1112.6
2018-Jul-01 07:39N 38°43' W 010°06'212.5
2018-Jul-01 07:30N 38°44' W 010°06'1112.5
2018-Jul-01 06:37N 38°56' W 010°06'213.0
2018-Jul-01 06:30N 38°57' W 010°06'63312.5
2018-Jun-29 03:55N 48°59' W 005°34'511.7
2018-Jun-29 03:30N 49°02' W 005°28'611.9
2018-Jun-29 03:00N 49°05' W 005°20'6713.6
2018-Jun-28 22:05N 49°39' W 003°51'113.3
2018-Jun-28 21:59N 49°39' W 003°49'613.3
2018-Jun-28 21:30N 49°42' W 003°40'613.0
2018-Jun-28 21:00N 49°45' W 003°32'612.3
2018-Jun-28 20:30N 49°49' W 003°24'611.8
2018-Jun-28 20:00N 49°52' W 003°16'611.3
2018-Jun-28 19:30N 49°54' W 003°08'611.2
2018-Jun-28 19:00N 49°57' W 003°00'611.2
2018-Jun-28 18:30N 49°59' W 002°52'611.6
2018-Jun-28 18:00N 50°00' W 002°43'612.0
2018-Jun-28 17:30N 50°02' W 002°34'612.6
2018-Jun-28 17:00N 50°04' W 002°25'713.3
2018-Jun-28 16:30N 50°06' W 002°15'714.1
2018-Jun-28 16:00N 50°08' W 002°05'1015.1
2018-Jun-28 15:21N 50°11' W 001°50'716.5
2018-Jun-28 14:55N 50°13' W 001°39'1416.1
2018-Jun-28 14:01N 50°16' W 001°17'416.1
2018-Jun-28 13:48N 50°17' W 001°12'616.0
2018-Jun-28 13:25N 50°18' W 001°02'615.4
2018-Jun-28 13:00N 50°20' W 000°53'714.4
2018-Jun-28 12:30N 50°22' W 000°42'713.7
2018-Jun-28 11:59N 50°25' W 000°32'1113.0
2018-Jun-28 11:08N 50°28' W 000°15'212.4
2018-Jun-28 10:59N 50°28' W 000°12'612.1
2018-Jun-28 10:30N 50°30' W 000°03'611.7
2018-Jun-28 09:58N 50°32' E 000°06'611.2
2018-Jun-28 09:25N 50°33' E 000°15'410.9
2018-Jun-28 09:00N 50°34' E 000°22'611.0
2018-Jun-28 08:29N 50°36' E 000°31'611.7
2018-Jun-28 08:00N 50°39' E 000°38'612.6
2018-Jun-28 07:30N 50°43' E 000°46'713.5
2018-Jun-28 07:00N 50°47' E 000°55'714.1
2018-Jun-28 06:30N 50°51' E 001°04'714.6
2018-Jun-28 06:01N 50°56' E 001°12'714.9
2018-Jun-28 05:30N 51°01' E 001°21'714.5
2018-Jun-28 05:00N 51°05' E 001°30'713.3
2018-Jun-28 04:30N 51°10' E 001°38'612.6
2018-Jun-28 04:00N 51°14' E 001°46'612.1
2018-Jun-28 03:30N 51°19' E 001°50'611.5
2018-Jun-28 03:00N 51°24' E 001°55'611.1
2018-Jun-28 02:30N 51°29' E 001°60'510.8
2018-Jun-28 02:00N 51°33' E 002°05'611.0
2018-Jun-28 01:30N 51°37' E 002°11'611.0
2018-Jun-28 01:00N 51°41' E 002°17'711.3
2018-Jun-28 00:22N 51°46' E 002°25'511.8
2018-Jun-27 23:58N 51°50' E 002°30'712.3
2018-Jun-27 23:25N 51°55' E 002°36'2910.4
2018-Jun-27 20:36N 52°03' E 003°22'113.7
2018-Jun-27 20:30N 52°03' E 003°24'713.8
2018-Jun-27 20:00N 52°03' E 003°35'713.7
2018-Jun-27 19:30N 52°03' E 003°47'510.9
2018-Jun-27 19:00N 52°03' E 003°55'612.6
2018-Jun-27 18:30N 51°59' E 004°04'612.6
2018-Jun-27 18:00N 51°56' E 004°13'510.0
2018-Jun-27 17:30N 51°54' E 004°20'4 7.1
2018-Jun-27 17:00N 51°54' E 004°26'1 2.5
2018-Jun-27 16:30N 51°53' E 004°27'0 0.1
2018-Jun-27 16:00N 51°53' E 004°27'0 0.0
2018-Jun-27 15:30N 51°53' E 004°27'0 0.0
2018-Jun-27 15:00N 51°53' E 004°27'0 0.0
2018-Jun-27 14:30N 51°53' E 004°27'0 0.0
2018-Jun-27 14:00N 51°53' E 004°27'0 0.0
2018-Jun-27 13:30N 51°53' E 004°27'0 0.0
2018-Jun-27 13:00N 51°53' E 004°27'0 0.0
2018-Jun-27 12:30N 51°53' E 004°27'0 0.0
2018-Jun-27 12:00N 51°53' E 004°27'0 0.0
2018-Jun-27 11:30N 51°53' E 004°27'0 0.0
2018-Jun-27 11:00N 51°53' E 004°27'0 0.0
2018-Jun-27 10:30N 51°53' E 004°27'0 0.0
2018-Jun-27 10:00N 51°53' E 004°27'0 0.0
2018-Jun-27 09:30N 51°53' E 004°27'0 0.0
2018-Jun-27 09:00N 51°53' E 004°27'0 0.0
2018-Jun-27 08:30N 51°53' E 004°27'0 0.0
2018-Jun-27 08:00N 51°53' E 004°27'0 0.0
2018-Jun-27 07:30N 51°53' E 004°27'0 0.0
2018-Jun-27 07:00N 51°53' E 004°27'0 0.0
2018-Jun-27 06:30N 51°53' E 004°27'0 0.0
2018-Jun-27 06:00N 51°53' E 004°27'1 2.2
2018-Jun-27 05:30N 51°54' E 004°26'2 4.7
2018-Jun-27 05:00N 51°54' E 004°22'2 3.9
2018-Jun-27 04:30N 51°53' E 004°20'2 4.8
2018-Jun-27 04:00N 51°51' E 004°22'4 7.1
2018-Jun-27 03:30N 51°50' E 004°27'3 6.8
2018-Jun-27 03:00N 51°50' E 004°33'3 5.2
2018-Jun-27 02:30N 51°48' E 004°36'1 3.0
2018-Jun-27 02:00N 51°48' E 004°38'0 0.2
2018-Jun-27 01:26N 51°48' E 004°38'0 0.0
2018-Jun-27 00:53N 51°48' E 004°38'0 0.0
2018-Jun-27 00:29N 51°48' E 004°38'0 0.0
2018-Jun-27 00:00N 51°48' E 004°38'0 0.0
2018-Jun-26 23:30N 51°48' E 004°38'  

Dump ship's entire track history